createdAt,value
2023-04-16T04:35:08.994Z,4.80
2023-04-16T04:50:11.507Z,5.03
2023-04-16T05:05:13.853Z,4.80
2023-04-16T05:20:15.932Z,4.82
2023-04-16T05:35:17.938Z,4.85
2023-04-16T05:50:19.845Z,5.00
2023-04-16T06:05:21.870Z,5.13
2023-04-16T06:20:23.785Z,4.90
2023-04-16T06:35:25.671Z,4.85
2023-04-16T06:50:28.541Z,4.38
2023-04-16T07:05:30.499Z,4.78
2023-04-16T07:20:32.438Z,4.60
2023-04-16T07:35:34.331Z,4.38
2023-04-16T07:50:36.831Z,4.60
2023-04-16T08:05:38.922Z,4.70
2023-04-16T08:20:41.152Z,4.05
2023-04-16T08:35:43.143Z,4.05
2023-04-16T08:50:45.617Z,4.10
2023-04-16T09:05:47.718Z,3.72
2023-04-16T09:20:49.954Z,3.50
2023-04-16T09:35:52.992Z,3.67
2023-04-16T09:50:54.913Z,3.60
2023-04-16T10:05:56.801Z,3.70
2023-04-16T10:20:58.849Z,4.10
2023-04-16T10:36:24.539Z,3.72
2023-04-16T10:51:29.446Z,5.60
2023-04-16T11:06:32.264Z,3.92
2023-04-16T11:21:34.285Z,3.80
2023-04-16T11:36:49.223Z,3.70
2023-04-16T11:51:53.251Z,4.50
2023-04-16T12:07:13.596Z,3.50
2023-04-16T12:22:16.025Z,3.80
2023-04-16T12:37:17.963Z,3.30
2023-04-16T12:52:20.806Z,3.35
2023-04-16T13:07:26.643Z,3.30
2023-04-16T13:22:28.680Z,3.20
2023-04-16T13:37:30.682Z,2.90
2023-04-16T13:52:35.561Z,3.30
2023-04-16T14:07:37.864Z,3.20
2023-04-16T14:22:40.039Z,3.20
2023-04-16T14:37:42.191Z,3.10
2023-04-16T14:52:44.177Z,3.50
2023-04-16T15:07:46.281Z,3.20
2023-04-16T15:22:48.187Z,3.55
2023-04-16T15:37:52.382Z,3.50
2023-04-16T15:52:54.334Z,3.60
2023-04-16T16:07:57.417Z,3.58
2023-04-16T16:22:59.321Z,3.47
2023-04-16T16:38:04.750Z,4.75
2023-04-16T16:53:06.808Z,3.83
2023-04-16T17:08:08.710Z,3.70
2023-04-16T17:23:10.820Z,4.80
2023-04-16T17:38:12.730Z,4.30
2023-04-16T17:53:14.691Z,3.85
2023-04-16T18:08:16.666Z,3.88
2023-04-16T18:23:19.724Z,3.75
2023-04-16T18:38:21.879Z,3.90
2023-04-16T18:53:24.011Z,3.75
2023-04-16T19:08:26.183Z,4.30
2023-04-16T19:23:28.390Z,4.60
2023-04-16T19:38:32.018Z,4.07
2023-04-16T19:53:34.797Z,4.30
2023-04-16T20:08:36.796Z,3.55
2023-04-16T20:23:38.801Z,4.10
2023-04-16T20:38:42.446Z,3.63
2023-04-16T20:53:44.482Z,3.80
